Weather observations for the past three days for
Las Vegas - Henderson Executive Airport
Metric (Imperial)
Date Time (pdt) Wind (kph) Vis. (km) Weather Sky Cond. Temperature (ºC) Relative Humidity Wind Chill (°C) Heat Index (°C) Pressure Precipitation (cm)
Air Dwpt 6 hour altimeter (cm) sea level (mb) 1 hr 3 hr 6 hr
Max. Min.
31 17:56 SW 26 G 33 16.09 Fair CLR 35.6 5 15% 33 75.77 1008.6
31 16:56 SW 31 G 43 16.09 Fair CLR 37.2 4.4 37.8 32.8 13% 35 75.79 1008.6
31 15:56 SW 30 G 41 16.09 Fair CLR 36.7 5 14% 34 75.79 1008.8
31 13:56 S 37 G 44 16.09 A Few Clouds and Breezy FEW100 36.1 9.4 20% 34 75.92 1010.3
31 12:56 S 22 G 28 16.09 Mostly Cloudy BKN100 35.6 10 21% 34 76 1011.3
31 11:56 S 11 16.09 Fair CLR 33.9 8.9 21% 32 76.05 1012.3
31 10:56 Vrbl 7 16.09 Fair CLR 32.8 13.3 33.3 26.1 31% 32 76.07 1012.6
31 09:56 Vrbl 9 16.09 Fair CLR 31.7 10 26% 30 76.1 1013.0
31 08:56 SW 15 16.09 Fair CLR 30.6 10 28% 29 76.07 1012.6
31 07:56 S 22 16.09 Fair CLR 29.4 8.3 27% 28 76.05 1012.3
31 06:56 S 9 16.09 Fair CLR 26.1 7.8 31% 26 76.02 1011.9
31 05:56 SW 15 16.09 Fair CLR 26.1 7.8 31% 26 75.97 1011.1
31 04:56 SW 17 16.09 Fair CLR 27.8 7.8 30.6 26.7 28% 27 75.95 1010.7
31 03:56 S 19 16.09 Fair CLR 27.8 7.8 28% 27 75.95 1010.6
31 02:56 S 13 16.09 Fair CLR 28.9 7.2 25% 28 75.9 1010.1
31 01:56 S 19 16.09 Fair CLR 28.9 6.7 25% 28 75.92 1010.2
31 00:56 S 15 16.09 Fair CLR 28.9 7.2 25% 28 75.92 1010.2
30 23:56 S 17 16.09 Fair CLR 28.9 11.1 33% 28 75.9 1010.0
30 22:56 S 15 16.09 Fair CLR 30.6 8.3 36.7 29.4 25% 29 75.9 1009.9
30 21:56 S 13 16.09 Fair CLR 30.6 5.6 21% 29 75.9 1010.0
30 20:56 W 11 16.09 Fair CLR 32.2 5.6 19% 30 75.87 1009.8
30 19:56 W 7 16.09 Fair CLR 33.3 5 17% 31 75.82 1009.0
30 18:56 W 22 16.09 Fair CLR 35 5 15% 33 75.79 1008.6
30 17:56 SW 19 16.09 Fair CLR 35.6 5.6 15% 33 75.79 1008.6
30 16:56 W 20 16.09 Fair CLR 36.7 6.7 37.8 33.3 16% 34 75.82 1008.9
30 15:56 SW 28 G 39 16.09 Fair CLR 37.2 6.1 15% 35 75.84 1009.2
30 14:56 SW 24 G 37 16.09 Fair CLR 37.2 6.1 15% 35 75.9 1009.8
30 13:56 W 15 G 33 16.09 Fair CLR 36.7 6.1 15% 34 75.97 1010.6
30 12:56 SW 30 G 41 16.09 Fair CLR 36.7 6.1 15% 34 76 1011.0
30 11:56 SW 26 16.09 Fair CLR 33.9 5.6 17% 32 76.05 1011.9
30 10:56 SW 30 G 39 16.09 Fair CLR 33.9 5 35 28.9 16% 32 76.07 1012.2
30 09:56 SW 26 G 37 16.09 Fair CLR 33.3 5.6 18% 31 76.05 1011.9
30 08:56 S 30 16.09 Fair CLR 30.6 5.6 21% 29 76.02 1011.7
30 07:56 S 24 16.09 Fair CLR 30.6 6.1 21% 29 76.02 1011.7
30 06:56 S 30 16.09 Fair CLR 29.4 7.8 26% 28 76 1011.1
30 05:56 S 28 16.09 Fair CLR 29.4 8.9 28% 28 75.92 1010.3
30 04:56 S 20 16.09 Fair CLR 30 9.4 32.8 30 28% 29 75.9 1009.7
30 03:56 SW 26 16.09 Fair CLR 30.6 8.9 26% 29 75.82 1008.7
30 02:56 SW 26 G 35 16.09 Fair CLR 30.6 9.4 27% 29 75.82 1008.6
30 01:56 SW 24 G 35 16.09 Fair CLR 31.7 10 26% 30 75.82 1008.6
30 00:56 SW 15 16.09 Fair CLR 31.7 9.4 25% 30 75.84 1009.1
29 23:56 SW 17 16.09 Fair CLR 32.2 8.9 24% 30 75.87 1009.4
29 22:56 SW 22 16.09 Fair CLR 32.8 9.4 38.9 32.8 24% 31 75.84 1009.1
29 21:56 SW 13 16.09 Fair CLR 33.9 9.4 22% 32 75.87 1009.5
29 20:56 W 13 16.09 Fair CLR 34.4 9.4 21% 33 75.84 1009.2
29 19:56 W 20 16.09 Fair CLR 36.1 9.4 20% 34 75.77 1008.1
29 18:56 SW 20 16.09 Fair CLR 36.7 8.9 18% 35 75.74 1007.9
29 17:56 SW 22 16.09 Fair CLR 37.8 8.9 17% 36 75.77 1008.0
29 16:56 SW 39 G 48 16.09 Fair and Breezy CLR 38.9 7.8 40 36.7 15% 37 75.77 1007.8
29 15:56 SW 24 G 35 16.09 Fair CLR 39.4 8.9 16% 37 75.77 1008.1
29 14:56 SW 30 G 44 16.09 Fair CLR 39.4 10 17% 38 75.84 1008.9
29 13:56 SW 19 G 43 16.09 Fair CLR 38.3 10 18% 37 75.92 1009.9
29 12:56 SW 26 G 44 16.09 Fair CLR 38.9 10.6 18% 37 75.95 1010.3
29 11:56 SW 26 G 41 16.09 Fair CLR 37.8 10.6 19% 36 76.02 1011.5
29 10:56 SW 31 G 44 16.09 Fair CLR 37.8 10.6 37.8 30 19% 36 76.05 1011.7
29 09:56 SW 30 16.09 Fair CLR 36.7 10 20% 35 76.05 1011.8
29 08:56 SW 26 16.09 Fair CLR 33.9 10.6 24% 32 76.05 1011.8
29 07:56 S 19 16.09 Fair CLR 32.2 11.1 27% 31 76.07 1012.1
29 06:56 SW 17 16.09 Fair CLR 30 11.1 31% 29 76.05 1012.0
29 05:56 SE 11 16.09 Fair CLR 30 11.1 31% 29 76.02 1011.3
29 04:56 S 13 16.09 Fair CLR 30.6 10.6 33.9 30 29% 29 76 1011.1
29 03:56 S 15 16.09 Fair CLR 31.1 10.6 28% 30 76 1011.1
29 02:56 SE 13 16.09 Fair CLR 32.2 10.6 26% 31 76 1011.0
29 01:56 S 20 16.09 Fair CLR 32.2 11.1 27% 31 76 1010.9
29 00:56 SW 17 16.09 Fair CLR 32.8 11.1 26% 31 76.02 1011.3
28 23:56 SW 11 16.09 Fair CLR 33.3 11.7 27% 32 76.05 1011.5
28 22:56 SW 20 16.09 Fair CLR 33.9 11.1 40.6 33.3 25% 32 76 1010.9
28 21:56 SW 15 16.09 Fair CLR 34.4 11.1 24% 33 76 1010.9
28 20:56 SW 13 16.09 Fair CLR 35.6 10.6 22% 34 75.95 1010.3
28 19:56 SW 31 G 70 16.09 Partly Cloudy FEW075 SCT110 36.7 9.4 19% 35 75.92 1010.2
28 18:56 SW 20 16.09 Fair CLR 38.3 10 18% 37 75.9 1009.6
Date Time (pdt) Wind (kph) Vis. (km) Weather Sky Cond. Air Dwpt Max. Min. Relative Humidity Wind Chill (°C) Heat Index (°C) altimeter (cm) sea level (mb) 1 hr 3 hr 6 hr
6 hour
Temperature (ºC) Pressure Precipitation (cm)